createdAt,value
2017-12-01T00:00:22.517Z,41.27
2017-12-01T00:02:50.055Z,45.90
2017-12-01T00:05:17.657Z,43.30
2017-12-01T00:07:45.207Z,42.63
2017-12-01T00:10:12.833Z,42.63
2017-12-01T00:12:40.465Z,46.77
2017-12-01T00:15:07.994Z,49.77
2017-12-01T00:17:35.511Z,49.73
2017-12-01T00:20:03.060Z,46.47
2017-12-01T00:22:30.597Z,46.57
2017-12-01T00:24:58.127Z,49.83
2017-12-01T00:27:25.654Z,47.30
2017-12-01T00:29:53.173Z,45.03
2017-12-01T00:32:20.700Z,50.83
2017-12-01T00:34:48.229Z,44.83
2017-12-01T00:37:15.750Z,46.97
2017-12-01T00:39:43.280Z,49.50
2017-12-01T00:42:10.868Z,49.67
2017-12-01T00:44:38.397Z,45.00
2017-12-01T00:47:05.921Z,50.37
2017-12-01T00:49:33.455Z,49.67
2017-12-01T00:52:00.993Z,47.77
2017-12-01T00:54:28.508Z,51.77
2017-12-01T00:56:56.023Z,42.13
2017-12-01T00:59:23.562Z,45.00
2017-12-01T01:01:51.082Z,44.10
2017-12-01T01:04:18.647Z,54.60
2017-12-01T01:06:46.195Z,50.03
2017-12-01T01:09:13.831Z,47.30
2017-12-01T01:11:41.384Z,48.87
2017-12-01T01:14:08.919Z,48.70
2017-12-01T01:16:36.432Z,45.53
2017-12-01T01:19:03.970Z,45.57
2017-12-01T01:21:31.537Z,45.27
2017-12-01T01:23:59.088Z,45.70
2017-12-01T01:26:26.616Z,45.50
2017-12-01T01:28:54.134Z,52.23
2017-12-01T01:31:21.664Z,48.17
2017-12-01T01:33:49.192Z,47.23
2017-12-01T01:36:16.754Z,45.40
2017-12-01T01:38:44.297Z,48.50
2017-12-01T01:41:11.929Z,44.87
2017-12-01T01:43:39.451Z,47.23
2017-12-01T01:46:06.988Z,42.63
2017-12-01T01:48:34.512Z,49.30
2017-12-01T01:51:02.039Z,47.30
2017-12-01T01:53:29.579Z,47.80
2017-12-01T01:55:57.089Z,47.60
2017-12-01T01:58:24.612Z,47.70
2017-12-01T02:00:52.229Z,47.37
2017-12-01T02:03:19.764Z,46.90
2017-12-01T02:05:47.295Z,50.17
2017-12-01T02:08:14.825Z,50.53
2017-12-01T02:10:42.411Z,50.53
2017-12-01T02:13:09.979Z,48.67
2017-12-01T02:15:37.493Z,47.60
2017-12-01T02:18:05.025Z,48.00
2017-12-01T02:20:32.655Z,49.63
2017-12-01T02:23:00.182Z,48.43
2017-12-01T02:25:27.699Z,51.10
2017-12-01T02:27:55.300Z,49.93
2017-12-01T02:30:22.896Z,44.67
2017-12-01T02:32:50.464Z,47.43
2017-12-01T02:35:18.012Z,48.63
2017-12-01T02:37:45.549Z,52.67
2017-12-01T02:40:13.134Z,47.93
2017-12-01T02:42:40.662Z,47.80
2017-12-01T02:45:08.189Z,47.87
2017-12-01T02:47:35.736Z,50.07
2017-12-01T02:50:03.335Z,46.77
2017-12-01T02:52:30.866Z,47.17
2017-12-01T02:54:58.433Z,52.43
2017-12-01T02:57:25.978Z,47.17
2017-12-01T02:59:53.525Z,47.37
2017-12-01T04:24:18.076Z,64.67
2017-12-01T04:26:45.614Z,66.30
2017-12-01T04:29:13.190Z,64.70
2017-12-01T04:31:40.725Z,67.83
2017-12-01T04:34:08.253Z,65.67
2017-12-01T04:36:35.868Z,66.50
2017-12-01T04:39:03.389Z,60.83
2017-12-01T04:41:30.992Z,60.53
2017-12-01T04:43:58.552Z,65.63
2017-12-01T04:46:26.083Z,59.73
2017-12-01T04:48:53.617Z,62.97
2017-12-01T04:51:21.145Z,61.23
2017-12-01T04:53:49.305Z,53.33
2017-12-01T04:56:16.851Z,60.27
2017-12-01T04:58:44.368Z,61.73
2017-12-01T05:01:11.985Z,53.80
2017-12-01T05:03:39.508Z,61.07
2017-12-01T05:06:07.038Z,65.23
2017-12-01T05:08:34.562Z,62.30
2017-12-01T05:11:02.094Z,67.07
2017-12-01T05:13:29.617Z,66.27
2017-12-01T05:15:57.137Z,70.63
2017-12-01T05:18:24.656Z,65.83
2017-12-01T05:20:52.199Z,64.07
2017-12-01T05:23:20.312Z,63.83
2017-12-01T05:25:47.898Z,69.60
2017-12-01T05:28:15.552Z,61.90
2017-12-01T05:30:43.083Z,65.27
2017-12-01T05:33:10.596Z,62.67
2017-12-01T05:35:38.124Z,69.63
2017-12-01T05:38:05.690Z,64.10
2017-12-01T05:40:33.252Z,63.67
2017-12-01T05:43:00.776Z,67.83
2017-12-01T05:45:28.325Z,69.27
2017-12-01T05:47:55.869Z,68.60
2017-12-01T05:50:23.383Z,68.73
2017-12-01T05:52:50.919Z,67.27
2017-12-01T05:55:18.954Z,68.57
2017-12-01T05:57:47.407Z,60.03
2017-12-01T06:00:14.966Z,64.83
2017-12-01T06:02:42.489Z,65.20
2017-12-01T06:05:10.014Z,72.97
2017-12-01T06:07:37.538Z,67.70
2017-12-01T06:10:05.066Z,67.77
2017-12-01T06:12:32.580Z,66.60
2017-12-01T06:15:00.100Z,66.27
2017-12-01T06:17:27.673Z,67.13
2017-12-01T06:19:55.189Z,73.30
2017-12-01T06:22:22.712Z,62.97
2017-12-01T06:24:50.247Z,66.57
2017-12-01T06:27:17.770Z,63.13
2017-12-01T06:29:45.301Z,61.87
2017-12-01T06:32:12.963Z,58.13
2017-12-01T06:34:40.487Z,71.00
2017-12-01T06:37:08.012Z,65.57
2017-12-01T06:39:35.536Z,71.30
2017-12-01T06:42:03.070Z,71.40
2017-12-01T06:44:30.626Z,69.00
2017-12-01T06:46:58.187Z,71.83
2017-12-01T06:49:25.750Z,68.57
2017-12-01T06:51:53.271Z,75.00
2017-12-01T06:54:20.872Z,76.67
2017-12-01T06:56:48.398Z,73.73
2017-12-01T06:59:15.922Z,77.93
2017-12-01T07:01:43.537Z,66.63
2017-12-01T07:04:11.066Z,73.53
2017-12-01T07:06:38.598Z,70.03
2017-12-01T07:09:06.126Z,72.00
2017-12-01T07:11:33.645Z,73.90
2017-12-01T07:14:01.179Z,79.53
2017-12-01T07:16:28.706Z,80.57
2017-12-01T07:18:56.224Z,73.67
2017-12-01T07:21:23.826Z,75.97
2017-12-01T07:23:51.368Z,73.87
2017-12-01T07:26:30.722Z,68.93
2017-12-01T07:28:58.254Z,70.10
2017-12-01T07:31:25.792Z,71.60
2017-12-01T07:33:53.322Z,67.87
2017-12-01T07:36:20.865Z,69.70
2017-12-01T07:38:48.378Z,69.47
2017-12-01T07:41:15.912Z,67.47
2017-12-01T07:43:43.439Z,66.27
2017-12-01T07:46:11.001Z,72.40
2017-12-01T07:48:38.530Z,65.37
2017-12-01T07:51:06.321Z,66.73
2017-12-01T07:53:33.853Z,64.00
2017-12-01T07:56:01.366Z,60.40
2017-12-01T07:58:28.897Z,64.80
2017-12-01T08:00:56.445Z,65.80
2017-12-01T08:03:23.959Z,63.53
2017-12-01T08:05:51.483Z,63.67
2017-12-01T08:08:19.004Z,60.33
2017-12-01T08:10:46.545Z,55.33
2017-12-01T08:13:14.075Z,62.33
2017-12-01T08:15:53.517Z,58.17
2017-12-01T08:18:32.932Z,59.57
2017-12-01T08:21:01.397Z,60.83
2017-12-01T08:23:40.850Z,59.97
2017-12-01T08:26:08.394Z,62.87
2017-12-01T08:28:35.924Z,60.80
2017-12-01T08:31:03.458Z,59.37
2017-12-01T08:33:30.984Z,58.80
2017-12-01T08:35:58.527Z,59.20
2017-12-01T08:38:26.074Z,60.43
2017-12-01T08:40:53.746Z,63.37
2017-12-01T08:43:21.267Z,53.40
2017-12-01T08:45:48.789Z,57.47
2017-12-01T08:48:16.334Z,55.33
2017-12-01T08:50:43.884Z,60.90
2017-12-01T08:53:11.397Z,53.97
2017-12-01T08:55:38.924Z,55.50
2017-12-01T08:58:11.773Z,56.23
2017-12-01T09:00:40.532Z,55.77
2017-12-01T09:03:13.747Z,59.47
2017-12-01T09:05:44.704Z,53.20
2017-12-01T09:08:12.377Z,53.63
2017-12-01T09:10:39.954Z,56.57
2017-12-01T09:13:07.496Z,52.10
2017-12-01T09:15:35.023Z,56.53
2017-12-01T09:18:02.552Z,52.70
2017-12-01T09:20:30.087Z,53.07
2017-12-01T09:22:57.652Z,53.43
2017-12-01T09:25:25.220Z,48.80
2017-12-01T09:27:52.761Z,55.20
2017-12-01T09:30:20.380Z,56.33
2017-12-01T23:18:32.347Z,44.30
2017-12-01T23:21:00.718Z,36.83
2017-12-01T23:23:28.234Z,37.33
2017-12-01T23:25:55.750Z,35.20
2017-12-01T23:28:23.278Z,38.03
2017-12-01T23:30:50.808Z,36.37
2017-12-01T23:33:18.353Z,34.20
2017-12-01T23:35:45.865Z,35.80
2017-12-01T23:38:13.386Z,33.20
2017-12-01T23:40:40.915Z,37.33
2017-12-01T23:43:08.436Z,36.30
2017-12-01T23:45:36.030Z,34.80
2017-12-01T23:48:03.605Z,34.53
2017-12-01T23:50:31.114Z,36.97
2017-12-01T23:52:58.757Z,39.03
2017-12-01T23:55:26.413Z,38.83
2017-12-01T23:57:53.927Z,41.87
